sensor_id;sensor_type;location;lat;lon;timestamp;P1;durP1;ratioP1;P2;durP2;ratioP2
78296;SDS011;67555;47.660;19.622;2024-02-26T00:00:32;18.90;;;10.13;;
78296;SDS011;67555;47.660;19.622;2024-02-26T00:03:00;18.02;;;9.38;;
78296;SDS011;67555;47.660;19.622;2024-02-26T00:05:26;18.58;;;9.25;;
78296;SDS011;67555;47.660;19.622;2024-02-26T00:07:51;16.85;;;8.88;;
78296;SDS011;67555;47.660;19.622;2024-02-26T00:10:17;17.98;;;9.48;;
78296;SDS011;67555;47.660;19.622;2024-02-26T00:12:43;16.15;;;8.45;;
78296;SDS011;67555;47.660;19.622;2024-02-26T00:15:09;15.65;;;8.98;;
78296;SDS011;67555;47.660;19.622;2024-02-26T00:17:35;16.27;;;7.95;;
78296;SDS011;67555;47.660;19.622;2024-02-26T00:20:02;17.80;;;8.00;;
78296;SDS011;67555;47.660;19.622;2024-02-26T00:22:33;18.25;;;7.72;;
78296;SDS011;67555;47.660;19.622;2024-02-26T00:24:59;18.83;;;8.43;;
78296;SDS011;67555;47.660;19.622;2024-02-26T00:27:24;13.70;;;7.47;;
78296;SDS011;67555;47.660;19.622;2024-02-26T00:29:50;16.17;;;8.32;;
78296;SDS011;67555;47.660;19.622;2024-02-26T00:32:15;17.25;;;8.13;;
78296;SDS011;67555;47.660;19.622;2024-02-26T00:34:41;17.15;;;8.18;;
78296;SDS011;67555;47.660;19.622;2024-02-26T00:37:07;13.02;;;7.70;;
78296;SDS011;67555;47.660;19.622;2024-02-26T00:39:33;17.80;;;8.43;;
78296;SDS011;67555;47.660;19.622;2024-02-26T00:41:59;16.17;;;7.65;;
78296;SDS011;67555;47.660;19.622;2024-02-26T00:44:24;15.15;;;7.97;;
78296;SDS011;67555;47.660;19.622;2024-02-26T00:46:50;18.58;;;8.88;;
78296;SDS011;67555;47.660;19.622;2024-02-26T00:49:16;34.13;;;11.20;;
78296;SDS011;67555;47.660;19.622;2024-02-26T00:51:42;42.97;;;14.00;;
78296;SDS011;67555;47.660;19.622;2024-02-26T00:54:07;33.28;;;14.15;;
78296;SDS011;67555;47.660;19.622;2024-02-26T00:56:33;30.25;;;11.93;;
78296;SDS011;67555;47.660;19.622;2024-02-26T00:58:59;27.70;;;11.35;;
78296;SDS011;67555;47.660;19.622;2024-02-26T01:01:24;21.67;;;10.18;;
78296;SDS011;67555;47.660;19.622;2024-02-26T01:03:50;17.83;;;8.88;;
78296;SDS011;67555;47.660;19.622;2024-02-26T01:06:16;19.42;;;9.15;;
78296;SDS011;67555;47.660;19.622;2024-02-26T01:08:42;16.98;;;8.60;;
78296;SDS011;67555;47.660;19.622;2024-02-26T01:11:08;14.68;;;7.78;;
78296;SDS011;67555;47.660;19.622;2024-02-26T01:13:33;13.60;;;6.82;;
78296;SDS011;67555;47.660;19.622;2024-02-26T01:15:59;15.80;;;8.45;;
78296;SDS011;67555;47.660;19.622;2024-02-26T01:18:26;14.02;;;8.20;;
78296;SDS011;67555;47.660;19.622;2024-02-26T01:20:52;15.90;;;8.00;;
78296;SDS011;67555;47.660;19.622;2024-02-26T01:23:19;15.15;;;7.93;;
78296;SDS011;67555;47.660;19.622;2024-02-26T01:25:45;18.58;;;8.80;;
78296;SDS011;67555;47.660;19.622;2024-02-26T01:28:11;15.63;;;8.23;;
78296;SDS011;67555;47.660;19.622;2024-02-26T01:30:36;18.90;;;9.07;;
78296;SDS011;67555;47.660;19.622;2024-02-26T01:33:02;19.73;;;9.43;;
78296;SDS011;67555;47.660;19.622;2024-02-26T01:35:28;24.45;;;10.15;;
78296;SDS011;67555;47.660;19.622;2024-02-26T01:37:55;21.92;;;12.65;;
78296;SDS011;67555;47.660;19.622;2024-02-26T01:40:21;22.85;;;12.02;;
78296;SDS011;67555;47.660;19.622;2024-02-26T01:42:47;24.27;;;12.15;;
78296;SDS011;67555;47.660;19.622;2024-02-26T01:45:16;21.92;;;10.90;;
78296;SDS011;67555;47.660;19.622;2024-02-26T01:47:52;23.13;;;12.32;;
78296;SDS011;67555;47.660;19.622;2024-02-26T01:50:18;22.85;;;11.48;;
78296;SDS011;67555;47.660;19.622;2024-02-26T01:52:45;21.90;;;10.55;;
78296;SDS011;67555;47.660;19.622;2024-02-26T01:55:12;25.42;;;11.13;;
78296;SDS011;67555;47.660;19.622;2024-02-26T01:57:39;21.45;;;10.55;;
78296;SDS011;67555;47.660;19.622;2024-02-26T02:00:08;22.08;;;11.60;;
78296;SDS011;67555;47.660;19.622;2024-02-26T02:02:35;22.63;;;11.25;;
78296;SDS011;67555;47.660;19.622;2024-02-26T02:05:01;24.70;;;12.02;;
78296;SDS011;67555;47.660;19.622;2024-02-26T02:07:28;24.48;;;12.15;;
78296;SDS011;67555;47.660;19.622;2024-02-26T02:09:55;26.05;;;11.77;;
78296;SDS011;67555;47.660;19.622;2024-02-26T02:12:21;23.10;;;11.18;;
78296;SDS011;67555;47.660;19.622;2024-02-26T02:14:47;23.05;;;11.75;;
78296;SDS011;67555;47.660;19.622;2024-02-26T02:17:13;27.13;;;12.52;;
78296;SDS011;67555;47.660;19.622;2024-02-26T02:19:38;26.25;;;13.20;;
78296;SDS011;67555;47.660;19.622;2024-02-26T02:22:04;21.10;;;12.25;;
78296;SDS011;67555;47.660;19.622;2024-02-26T02:24:30;21.58;;;11.43;;
78296;SDS011;67555;47.660;19.622;2024-02-26T02:26:55;26.15;;;12.10;;
78296;SDS011;67555;47.660;19.622;2024-02-26T02:29:21;26.40;;;11.75;;
78296;SDS011;67555;47.660;19.622;2024-02-26T02:31:47;25.40;;;11.30;;
78296;SDS011;67555;47.660;19.622;2024-02-26T02:34:13;23.83;;;10.98;;
78296;SDS011;67555;47.660;19.622;2024-02-26T02:36:49;22.55;;;12.15;;
78296;SDS011;67555;47.660;19.622;2024-02-26T02:39:18;21.75;;;10.68;;
78296;SDS011;67555;47.660;19.622;2024-02-26T02:41:44;23.23;;;10.85;;
78296;SDS011;67555;47.660;19.622;2024-02-26T02:44:09;24.48;;;10.30;;
78296;SDS011;67555;47.660;19.622;2024-02-26T02:46:35;25.15;;;11.60;;
78296;SDS011;67555;47.660;19.622;2024-02-26T02:49:01;26.58;;;12.07;;
78296;SDS011;67555;47.660;19.622;2024-02-26T02:51:27;26.83;;;12.13;;
78296;SDS011;67555;47.660;19.622;2024-02-26T02:53:52;24.65;;;11.63;;
78296;SDS011;67555;47.660;19.622;2024-02-26T02:56:18;28.92;;;12.20;;
78296;SDS011;67555;47.660;19.622;2024-02-26T02:58:44;26.08;;;13.52;;
78296;SDS011;67555;47.660;19.622;2024-02-26T03:01:10;30.83;;;12.20;;
78296;SDS011;67555;47.660;19.622;2024-02-26T03:03:35;24.40;;;12.77;;
78296;SDS011;67555;47.660;19.622;2024-02-26T03:06:02;25.35;;;11.23;;
78296;SDS011;67555;47.660;19.622;2024-02-26T03:08:28;23.63;;;12.30;;
78296;SDS011;67555;47.660;19.622;2024-02-26T03:10:54;27.58;;;11.80;;
78296;SDS011;67555;47.660;19.622;2024-02-26T03:13:20;22.55;;;11.88;;
78296;SDS011;67555;47.660;19.622;2024-02-26T03:15:46;26.90;;;11.73;;
78296;SDS011;67555;47.660;19.622;2024-02-26T03:18:11;24.33;;;11.35;;
78296;SDS011;67555;47.660;19.622;2024-02-26T03:20:37;24.73;;;11.93;;
78296;SDS011;67555;47.660;19.622;2024-02-26T03:23:03;24.50;;;11.52;;
78296;SDS011;67555;47.660;19.622;2024-02-26T03:25:29;22.92;;;12.93;;
78296;SDS011;67555;47.660;19.622;2024-02-26T03:27:54;22.00;;;11.05;;
78296;SDS011;67555;47.660;19.622;2024-02-26T03:30:20;26.70;;;11.70;;
78296;SDS011;67555;47.660;19.622;2024-02-26T03:32:46;22.45;;;10.38;;
78296;SDS011;67555;47.660;19.622;2024-02-26T03:35:13;26.88;;;11.85;;
78296;SDS011;67555;47.660;19.622;2024-02-26T03:37:39;22.17;;;11.38;;
78296;SDS011;67555;47.660;19.622;2024-02-26T03:40:05;25.63;;;10.82;;
78296;SDS011;67555;47.660;19.622;2024-02-26T03:42:31;24.92;;;10.88;;
78296;SDS011;67555;47.660;19.622;2024-02-26T03:44:57;22.52;;;11.50;;
78296;SDS011;67555;47.660;19.622;2024-02-26T03:47:23;25.33;;;13.43;;
78296;SDS011;67555;47.660;19.622;2024-02-26T03:49:48;24.90;;;12.30;;
78296;SDS011;67555;47.660;19.622;2024-02-26T03:52:14;32.45;;;11.88;;
78296;SDS011;67555;47.660;19.622;2024-02-26T03:54:40;29.05;;;11.88;;
78296;SDS011;67555;47.660;19.622;2024-02-26T03:57:05;29.00;;;13.13;;
78296;SDS011;67555;47.660;19.622;2024-02-26T03:59:31;27.92;;;11.73;;
78296;SDS011;67555;47.660;19.622;2024-02-26T04:01:57;21.48;;;10.70;;
78296;SDS011;67555;47.660;19.622;2024-02-26T04:04:22;25.15;;;12.05;;
78296;SDS011;67555;47.660;19.622;2024-02-26T04:06:48;28.13;;;11.95;;
78296;SDS011;67555;47.660;19.622;2024-02-26T04:09:14;23.30;;;10.77;;
78296;SDS011;67555;47.660;19.622;2024-02-26T04:11:40;17.70;;;10.25;;
78296;SDS011;67555;47.660;19.622;2024-02-26T04:14:05;26.58;;;10.63;;
78296;SDS011;67555;47.660;19.622;2024-02-26T04:16:33;19.27;;;9.40;;
78296;SDS011;67555;47.660;19.622;2024-02-26T04:19:00;25.77;;;10.30;;
78296;SDS011;67555;47.660;19.622;2024-02-26T04:21:26;23.40;;;9.85;;
78296;SDS011;67555;47.660;19.622;2024-02-26T04:23:52;22.67;;;10.93;;
78296;SDS011;67555;47.660;19.622;2024-02-26T04:26:20;18.75;;;8.98;;
78296;SDS011;67555;47.660;19.622;2024-02-26T04:28:46;21.40;;;8.98;;
78296;SDS011;67555;47.660;19.622;2024-02-26T04:31:12;16.13;;;7.88;;
78296;SDS011;67555;47.660;19.622;2024-02-26T04:33:38;17.05;;;9.40;;
78296;SDS011;67555;47.660;19.622;2024-02-26T04:36:04;16.77;;;9.50;;
78296;SDS011;67555;47.660;19.622;2024-02-26T04:38:29;21.30;;;9.38;;
78296;SDS011;67555;47.660;19.622;2024-02-26T04:40:55;17.73;;;8.48;;
78296;SDS011;67555;47.660;19.622;2024-02-26T04:43:21;16.83;;;7.68;;
78296;SDS011;67555;47.660;19.622;2024-02-26T04:45:46;12.77;;;6.82;;
78296;SDS011;67555;47.660;19.622;2024-02-26T04:48:13;12.80;;;6.75;;
78296;SDS011;67555;47.660;19.622;2024-02-26T04:50:38;15.07;;;7.93;;
78296;SDS011;67555;47.660;19.622;2024-02-26T04:53:04;14.45;;;6.93;;
78296;SDS011;67555;47.660;19.622;2024-02-26T04:55:30;14.15;;;7.45;;
78296;SDS011;67555;47.660;19.622;2024-02-26T04:57:55;14.18;;;7.10;;
78296;SDS011;67555;47.660;19.622;2024-02-26T05:00:21;12.82;;;6.38;;
78296;SDS011;67555;47.660;19.622;2024-02-26T05:02:47;13.60;;;6.45;;
78296;SDS011;67555;47.660;19.622;2024-02-26T05:05:12;10.80;;;6.50;;
78296;SDS011;67555;47.660;19.622;2024-02-26T05:07:41;13.55;;;6.80;;
78296;SDS011;67555;47.660;19.622;2024-02-26T05:10:08;12.63;;;7.18;;
78296;SDS011;67555;47.660;19.622;2024-02-26T05:12:34;12.90;;;7.03;;
78296;SDS011;67555;47.660;19.622;2024-02-26T05:15:01;14.82;;;8.27;;
78296;SDS011;67555;47.660;19.622;2024-02-26T05:17:27;18.05;;;7.05;;
78296;SDS011;67555;47.660;19.622;2024-02-26T05:19:53;20.65;;;8.75;;
78296;SDS011;67555;47.660;19.622;2024-02-26T05:22:18;16.20;;;9.30;;
78296;SDS011;67555;47.660;19.622;2024-02-26T05:24:44;18.90;;;9.23;;
78296;SDS011;67555;47.660;19.622;2024-02-26T05:27:10;14.38;;;8.32;;
78296;SDS011;67555;47.660;19.622;2024-02-26T05:29:37;21.33;;;11.00;;
78296;SDS011;67555;47.660;19.622;2024-02-26T05:32:03;21.02;;;9.90;;
78296;SDS011;67555;47.660;19.622;2024-02-26T05:34:30;17.30;;;9.30;;
78296;SDS011;67555;47.660;19.622;2024-02-26T05:36:55;21.13;;;9.60;;
78296;SDS011;67555;47.660;19.622;2024-02-26T05:39:21;16.42;;;8.63;;
78296;SDS011;67555;47.660;19.622;2024-02-26T05:41:47;18.10;;;8.23;;
78296;SDS011;67555;47.660;19.622;2024-02-26T05:44:14;15.15;;;8.07;;
78296;SDS011;67555;47.660;19.622;2024-02-26T05:46:41;18.63;;;9.15;;
78296;SDS011;67555;47.660;19.622;2024-02-26T05:49:07;23.65;;;9.93;;
78296;SDS011;67555;47.660;19.622;2024-02-26T05:51:33;18.67;;;9.30;;
78296;SDS011;67555;47.660;19.622;2024-02-26T05:53:58;20.02;;;9.30;;
78296;SDS011;67555;47.660;19.622;2024-02-26T05:56:24;21.23;;;9.75;;
78296;SDS011;67555;47.660;19.622;2024-02-26T05:58:50;18.67;;;8.65;;
78296;SDS011;67555;47.660;19.622;2024-02-26T06:01:16;18.30;;;9.27;;
78296;SDS011;67555;47.660;19.622;2024-02-26T06:03:42;19.75;;;8.82;;
78296;SDS011;67555;47.660;19.622;2024-02-26T06:06:09;16.27;;;8.80;;
78296;SDS011;67555;47.660;19.622;2024-02-26T06:08:35;19.65;;;9.10;;
78296;SDS011;67555;47.660;19.622;2024-02-26T06:11:05;16.55;;;8.38;;
78296;SDS011;67555;47.660;19.622;2024-02-26T06:13:31;18.25;;;9.02;;
78296;SDS011;67555;47.660;19.622;2024-02-26T06:15:57;18.90;;;8.95;;
78296;SDS011;67555;47.660;19.622;2024-02-26T06:18:23;16.67;;;9.02;;
78296;SDS011;67555;47.660;19.622;2024-02-26T06:20:49;18.65;;;9.45;;
78296;SDS011;67555;47.660;19.622;2024-02-26T06:23:15;17.90;;;9.20;;
78296;SDS011;67555;47.660;19.622;2024-02-26T06:25:41;16.05;;;9.35;;
78296;SDS011;67555;47.660;19.622;2024-02-26T06:28:08;18.58;;;9.75;;
78296;SDS011;67555;47.660;19.622;2024-02-26T06:30:33;20.05;;;9.43;;
78296;SDS011;67555;47.660;19.622;2024-02-26T06:32:59;14.82;;;8.23;;
78296;SDS011;67555;47.660;19.622;2024-02-26T06:35:25;19.60;;;9.38;;
78296;SDS011;67555;47.660;19.622;2024-02-26T06:37:51;16.65;;;9.10;;
78296;SDS011;67555;47.660;19.622;2024-02-26T06:40:18;20.30;;;10.38;;
78296;SDS011;67555;47.660;19.622;2024-02-26T06:42:44;16.27;;;9.65;;
78296;SDS011;67555;47.660;19.622;2024-02-26T06:45:10;18.05;;;8.50;;
78296;SDS011;67555;47.660;19.622;2024-02-26T06:47:36;17.17;;;8.23;;
78296;SDS011;67555;47.660;19.622;2024-02-26T06:50:01;17.75;;;9.60;;
78296;SDS011;67555;47.660;19.622;2024-02-26T06:52:28;19.88;;;9.98;;
78296;SDS011;67555;47.660;19.622;2024-02-26T06:54:53;19.15;;;9.65;;
78296;SDS011;67555;47.660;19.622;2024-02-26T06:57:19;24.17;;;10.38;;
78296;SDS011;67555;47.660;19.622;2024-02-26T06:59:45;19.42;;;10.07;;
78296;SDS011;67555;47.660;19.622;2024-02-26T07:02:12;22.48;;;11.18;;
78296;SDS011;67555;47.660;19.622;2024-02-26T07:04:39;21.00;;;10.95;;
78296;SDS011;67555;47.660;19.622;2024-02-26T07:07:05;21.95;;;10.07;;
78296;SDS011;67555;47.660;19.622;2024-02-26T07:09:32;20.67;;;9.50;;
78296;SDS011;67555;47.660;19.622;2024-02-26T07:11:58;15.85;;;9.60;;
78296;SDS011;67555;47.660;19.622;2024-02-26T07:14:24;16.65;;;9.43;;
78296;SDS011;67555;47.660;19.622;2024-02-26T07:16:50;19.50;;;9.88;;
78296;SDS011;67555;47.660;19.622;2024-02-26T07:19:16;22.33;;;10.00;;
78296;SDS011;67555;47.660;19.622;2024-02-26T07:21:41;17.85;;;9.38;;
78296;SDS011;67555;47.660;19.622;2024-02-26T07:24:08;22.52;;;9.55;;
78296;SDS011;67555;47.660;19.622;2024-02-26T07:26:33;18.60;;;9.88;;
78296;SDS011;67555;47.660;19.622;2024-02-26T07:28:59;14.02;;;8.40;;
78296;SDS011;67555;47.660;19.622;2024-02-26T07:31:25;20.13;;;9.45;;
78296;SDS011;67555;47.660;19.622;2024-02-26T07:33:51;16.40;;;8.63;;
78296;SDS011;67555;47.660;19.622;2024-02-26T07:36:17;16.77;;;9.35;;
78296;SDS011;67555;47.660;19.622;2024-02-26T07:38:42;15.05;;;8.75;;
78296;SDS011;67555;47.660;19.622;2024-02-26T07:41:08;16.75;;;9.73;;
78296;SDS011;67555;47.660;19.622;2024-02-26T07:43:34;24.40;;;10.52;;
78296;SDS011;67555;47.660;19.622;2024-02-26T07:46:00;21.02;;;9.15;;
78296;SDS011;67555;47.660;19.622;2024-02-26T07:48:25;16.38;;;9.38;;
78296;SDS011;67555;47.660;19.622;2024-02-26T07:50:51;21.63;;;10.23;;
78296;SDS011;67555;47.660;19.622;2024-02-26T07:53:17;14.43;;;9.25;;
78296;SDS011;67555;47.660;19.622;2024-02-26T07:55:43;21.15;;;9.48;;
78296;SDS011;67555;47.660;19.622;2024-02-26T07:58:08;16.10;;;9.70;;
78296;SDS011;67555;47.660;19.622;2024-02-26T08:00:34;18.80;;;10.23;;
78296;SDS011;67555;47.660;19.622;2024-02-26T08:03:00;17.98;;;10.18;;
78296;SDS011;67555;47.660;19.622;2024-02-26T08:05:26;17.45;;;9.40;;
78296;SDS011;67555;47.660;19.622;2024-02-26T08:07:51;19.20;;;9.70;;
78296;SDS011;67555;47.660;19.622;2024-02-26T08:10:17;18.17;;;9.38;;
78296;SDS011;67555;47.660;19.622;2024-02-26T08:12:42;17.20;;;10.60;;
78296;SDS011;67555;47.660;19.622;2024-02-26T08:15:10;16.98;;;9.63;;
78296;SDS011;67555;47.660;19.622;2024-02-26T08:17:36;18.45;;;10.13;;
78296;SDS011;67555;47.660;19.622;2024-02-26T08:20:02;15.43;;;9.25;;
78296;SDS011;67555;47.660;19.622;2024-02-26T08:22:28;19.10;;;10.07;;
78296;SDS011;67555;47.660;19.622;2024-02-26T08:24:54;18.38;;;9.88;;
78296;SDS011;67555;47.660;19.622;2024-02-26T08:27:19;23.35;;;11.15;;
78296;SDS011;67555;47.660;19.622;2024-02-26T08:29:45;18.10;;;9.60;;
78296;SDS011;67555;47.660;19.622;2024-02-26T08:32:10;19.20;;;10.10;;
78296;SDS011;67555;47.660;19.622;2024-02-26T08:34:36;15.93;;;9.73;;
78296;SDS011;67555;47.660;19.622;2024-02-26T08:37:02;15.85;;;10.63;;
78296;SDS011;67555;47.660;19.622;2024-02-26T08:39:28;17.52;;;10.45;;
78296;SDS011;67555;47.660;19.622;2024-02-26T08:41:53;16.73;;;9.95;;
78296;SDS011;67555;47.660;19.622;2024-02-26T08:44:19;18.40;;;10.40;;
78296;SDS011;67555;47.660;19.622;2024-02-26T08:46:45;18.02;;;10.38;;
78296;SDS011;67555;47.660;19.622;2024-02-26T08:49:11;17.23;;;9.30;;
78296;SDS011;67555;47.660;19.622;2024-02-26T08:51:46;20.05;;;10.32;;
78296;SDS011;67555;47.660;19.622;2024-02-26T08:54:11;18.10;;;10.75;;
78296;SDS011;67555;47.660;19.622;2024-02-26T08:56:37;15.45;;;10.45;;
78296;SDS011;67555;47.660;19.622;2024-02-26T08:59:03;20.35;;;11.15;;
78296;SDS011;67555;47.660;19.622;2024-02-26T09:01:29;16.90;;;10.25;;
78296;SDS011;67555;47.660;19.622;2024-02-26T09:03:56;16.17;;;9.35;;
78296;SDS011;67555;47.660;19.622;2024-02-26T09:06:22;19.70;;;10.13;;
78296;SDS011;67555;47.660;19.622;2024-02-26T09:08:47;15.35;;;9.95;;
78296;SDS011;67555;47.660;19.622;2024-02-26T09:11:13;19.08;;;10.32;;
78296;SDS011;67555;47.660;19.622;2024-02-26T09:13:39;20.83;;;11.45;;
78296;SDS011;67555;47.660;19.622;2024-02-26T09:16:05;17.77;;;10.48;;
78296;SDS011;67555;47.660;19.622;2024-02-26T09:18:31;19.90;;;11.43;;
78296;SDS011;67555;47.660;19.622;2024-02-26T09:20:57;20.45;;;11.55;;
78296;SDS011;67555;47.660;19.622;2024-02-26T09:23:22;20.60;;;10.88;;
78296;SDS011;67555;47.660;19.622;2024-02-26T09:25:48;17.58;;;11.05;;
78296;SDS011;67555;47.660;19.622;2024-02-26T09:28:14;18.40;;;11.35;;
78296;SDS011;67555;47.660;19.622;2024-02-26T09:30:42;20.45;;;11.90;;
78296;SDS011;67555;47.660;19.622;2024-02-26T09:33:10;21.92;;;11.52;;
78296;SDS011;67555;47.660;19.622;2024-02-26T09:35:36;21.55;;;12.20;;
78296;SDS011;67555;47.660;19.622;2024-02-26T09:38:02;21.02;;;12.32;;
78296;SDS011;67555;47.660;19.622;2024-02-26T09:40:28;19.85;;;11.93;;
78296;SDS011;67555;47.660;19.622;2024-02-26T09:43:00;22.50;;;12.35;;
78296;SDS011;67555;47.660;19.622;2024-02-26T09:45:29;23.63;;;13.02;;
78296;SDS011;67555;47.660;19.622;2024-02-26T09:50:23;21.20;;;12.73;;
78296;SDS011;67555;47.660;19.622;2024-02-26T09:52:49;25.02;;;14.82;;
78296;SDS011;67555;47.660;19.622;2024-02-26T09:55:16;24.30;;;13.27;;
78296;SDS011;67555;47.660;19.622;2024-02-26T09:57:45;28.48;;;13.88;;
78296;SDS011;67555;47.660;19.622;2024-02-26T10:00:15;24.80;;;13.98;;
78296;SDS011;67555;47.660;19.622;2024-02-26T10:02:45;20.58;;;14.43;;
78296;SDS011;67555;47.660;19.622;2024-02-26T10:05:13;24.23;;;13.20;;
78296;SDS011;67555;47.660;19.622;2024-02-26T10:07:43;23.25;;;14.38;;
78296;SDS011;67555;47.660;19.622;2024-02-26T10:10:09;28.83;;;13.82;;
78296;SDS011;67555;47.660;19.622;2024-02-26T10:12:36;25.10;;;13.35;;
78296;SDS011;67555;47.660;19.622;2024-02-26T10:15:01;24.17;;;14.48;;
78296;SDS011;67555;47.660;19.622;2024-02-26T10:17:27;28.15;;;16.08;;
78296;SDS011;67555;47.660;19.622;2024-02-26T10:19:54;21.08;;;13.32;;
78296;SDS011;67555;47.660;19.622;2024-02-26T10:22:21;22.20;;;14.40;;
78296;SDS011;67555;47.660;19.622;2024-02-26T10:24:47;22.55;;;13.00;;
78296;SDS011;67555;47.660;19.622;2024-02-26T10:27:13;20.70;;;13.23;;
78296;SDS011;67555;47.660;19.622;2024-02-26T10:29:40;22.90;;;13.38;;
78296;SDS011;67555;47.660;19.622;2024-02-26T10:32:08;23.83;;;13.48;;
78296;SDS011;67555;47.660;19.622;2024-02-26T10:34:34;21.30;;;13.25;;
78296;SDS011;67555;47.660;19.622;2024-02-26T10:37:03;21.60;;;13.10;;
78296;SDS011;67555;47.660;19.622;2024-02-26T10:39:29;25.48;;;14.60;;
78296;SDS011;67555;47.660;19.622;2024-02-26T10:41:55;27.38;;;14.48;;
78296;SDS011;67555;47.660;19.622;2024-02-26T10:44:21;23.75;;;13.43;;
78296;SDS011;67555;47.660;19.622;2024-02-26T10:46:47;23.50;;;14.15;;
78296;SDS011;67555;47.660;19.622;2024-02-26T10:49:16;25.55;;;14.13;;
78296;SDS011;67555;47.660;19.622;2024-02-26T10:51:45;27.15;;;16.05;;
78296;SDS011;67555;47.660;19.622;2024-02-26T10:54:15;28.55;;;14.38;;
78296;SDS011;67555;47.660;19.622;2024-02-26T10:56:41;25.30;;;14.55;;
78296;SDS011;67555;47.660;19.622;2024-02-26T10:59:09;26.90;;;16.65;;
78296;SDS011;67555;47.660;19.622;2024-02-26T11:01:36;29.20;;;15.82;;
78296;SDS011;67555;47.660;19.622;2024-02-26T11:04:06;23.02;;;13.57;;
78296;SDS011;67555;47.660;19.622;2024-02-26T11:06:33;23.70;;;14.05;;
78296;SDS011;67555;47.660;19.622;2024-02-26T11:09:00;30.00;;;15.23;;
78296;SDS011;67555;47.660;19.622;2024-02-26T11:11:27;26.67;;;14.85;;
78296;SDS011;67555;47.660;19.622;2024-02-26T11:13:54;24.55;;;13.18;;
78296;SDS011;67555;47.660;19.622;2024-02-26T11:16:22;24.75;;;13.70;;
78296;SDS011;67555;47.660;19.622;2024-02-26T11:18:48;26.55;;;13.70;;
78296;SDS011;67555;47.660;19.622;2024-02-26T11:21:17;25.58;;;15.50;;
78296;SDS011;67555;47.660;19.622;2024-02-26T11:23:45;29.05;;;15.10;;
78296;SDS011;67555;47.660;19.622;2024-02-26T11:26:11;26.80;;;14.05;;
78296;SDS011;67555;47.660;19.622;2024-02-26T11:28:40;31.40;;;15.93;;
78296;SDS011;67555;47.660;19.622;2024-02-26T11:31:06;27.88;;;14.68;;
78296;SDS011;67555;47.660;19.622;2024-02-26T11:33:34;27.30;;;14.88;;
78296;SDS011;67555;47.660;19.622;2024-02-26T11:36:12;26.77;;;14.32;;
78296;SDS011;67555;47.660;19.622;2024-02-26T11:38:39;24.30;;;14.65;;
78296;SDS011;67555;47.660;19.622;2024-02-26T11:41:05;30.92;;;15.65;;
78296;SDS011;67555;47.660;19.622;2024-02-26T11:43:51;31.30;;;16.30;;
78296;SDS011;67555;47.660;19.622;2024-02-26T11:46:28;28.30;;;15.82;;
78296;SDS011;67555;47.660;19.622;2024-02-26T11:49:44;29.58;;;16.25;;
78296;SDS011;67555;47.660;19.622;2024-02-26T11:51:53;28.75;;;16.15;;
78296;SDS011;67555;47.660;19.622;2024-02-26T11:54:39;30.05;;;16.92;;
78296;SDS011;67555;47.660;19.622;2024-02-26T11:57:27;27.48;;;16.60;;
78296;SDS011;67555;47.660;19.622;2024-02-26T12:02:44;26.83;;;16.80;;
78296;SDS011;67555;47.660;19.622;2024-02-26T12:05:16;30.15;;;16.90;;
78296;SDS011;67555;47.660;19.622;2024-02-26T12:07:46;28.80;;;14.93;;
78296;SDS011;67555;47.660;19.622;2024-02-26T12:10:16;28.70;;;14.93;;
78296;SDS011;67555;47.660;19.622;2024-02-26T12:13:07;24.38;;;13.48;;
78296;SDS011;67555;47.660;19.622;2024-02-26T12:15:37;24.17;;;13.77;;
78296;SDS011;67555;47.660;19.622;2024-02-26T12:18:08;26.17;;;14.65;;
78296;SDS011;67555;47.660;19.622;2024-02-26T12:20:36;28.50;;;15.00;;
78296;SDS011;67555;47.660;19.622;2024-02-26T12:23:02;26.55;;;15.20;;
78296;SDS011;67555;47.660;19.622;2024-02-26T12:25:29;21.42;;;14.65;;
78296;SDS011;67555;47.660;19.622;2024-02-26T12:27:56;22.67;;;14.02;;
78296;SDS011;67555;47.660;19.622;2024-02-26T12:30:23;23.08;;;14.05;;
78296;SDS011;67555;47.660;19.622;2024-02-26T12:32:50;21.88;;;13.93;;
78296;SDS011;67555;47.660;19.622;2024-02-26T12:35:17;21.75;;;13.73;;
78296;SDS011;67555;47.660;19.622;2024-02-26T12:37:43;23.13;;;14.18;;
78296;SDS011;67555;47.660;19.622;2024-02-26T12:40:10;21.42;;;14.13;;
78296;SDS011;67555;47.660;19.622;2024-02-26T12:42:36;21.88;;;13.43;;
78296;SDS011;67555;47.660;19.622;2024-02-26T12:45:06;28.23;;;17.17;;
78296;SDS011;67555;47.660;19.622;2024-02-26T12:47:40;23.95;;;15.05;;
78296;SDS011;67555;47.660;19.622;2024-02-26T12:50:09;26.45;;;14.30;;
78296;SDS011;67555;47.660;19.622;2024-02-26T12:52:36;22.77;;;13.65;;
78296;SDS011;67555;47.660;19.622;2024-02-26T12:55:05;23.95;;;13.90;;
78296;SDS011;67555;47.660;19.622;2024-02-26T12:57:35;27.10;;;16.25;;
78296;SDS011;67555;47.660;19.622;2024-02-26T13:00:07;28.70;;;16.88;;
78296;SDS011;67555;47.660;19.622;2024-02-26T13:02:35;26.42;;;18.23;;
78296;SDS011;67555;47.660;19.622;2024-02-26T13:05:03;25.85;;;16.75;;
78296;SDS011;67555;47.660;19.622;2024-02-26T13:07:30;24.08;;;14.32;;
78296;SDS011;67555;47.660;19.622;2024-02-26T13:09:56;26.42;;;15.35;;
78296;SDS011;67555;47.660;19.622;2024-02-26T13:12:22;24.55;;;15.38;;
78296;SDS011;67555;47.660;19.622;2024-02-26T13:14:57;23.75;;;14.90;;
78296;SDS011;67555;47.660;19.622;2024-02-26T13:17:24;25.60;;;14.70;;
78296;SDS011;67555;47.660;19.622;2024-02-26T13:19:52;25.77;;;15.23;;
78296;SDS011;67555;47.660;19.622;2024-02-26T13:22:20;27.08;;;16.50;;
78296;SDS011;67555;47.660;19.622;2024-02-26T13:24:53;27.50;;;17.35;;
78296;SDS011;67555;47.660;19.622;2024-02-26T13:27:22;32.80;;;18.88;;
78296;SDS011;67555;47.660;19.622;2024-02-26T13:29:48;25.15;;;15.35;;
78296;SDS011;67555;47.660;19.622;2024-02-26T13:32:14;28.85;;;17.17;;
78296;SDS011;67555;47.660;19.622;2024-02-26T13:34:40;34.22;;;22.80;;
78296;SDS011;67555;47.660;19.622;2024-02-26T13:37:05;30.33;;;18.70;;
78296;SDS011;67555;47.660;19.622;2024-02-26T13:39:31;31.98;;;19.27;;
78296;SDS011;67555;47.660;19.622;2024-02-26T13:41:57;28.50;;;17.20;;
78296;SDS011;67555;47.660;19.622;2024-02-26T13:44:23;32.17;;;17.48;;
78296;SDS011;67555;47.660;19.622;2024-02-26T13:46:49;30.90;;;18.23;;
78296;SDS011;67555;47.660;19.622;2024-02-26T13:49:15;34.05;;;20.20;;
78296;SDS011;67555;47.660;19.622;2024-02-26T13:51:41;36.25;;;19.17;;
78296;SDS011;67555;47.660;19.622;2024-02-26T13:54:07;52.15;;;24.02;;
78296;SDS011;67555;47.660;19.622;2024-02-26T13:56:34;47.05;;;23.00;;
78296;SDS011;67555;47.660;19.622;2024-02-26T13:59:00;41.60;;;21.27;;
78296;SDS011;67555;47.660;19.622;2024-02-26T14:01:26;43.65;;;22.45;;
78296;SDS011;67555;47.660;19.622;2024-02-26T14:03:51;53.90;;;25.00;;
78296;SDS011;67555;47.660;19.622;2024-02-26T14:06:20;90.53;;;37.47;;
78296;SDS011;67555;47.660;19.622;2024-02-26T14:08:46;41.08;;;21.90;;
78296;SDS011;67555;47.660;19.622;2024-02-26T14:11:11;41.67;;;22.20;;
78296;SDS011;67555;47.660;19.622;2024-02-26T14:13:37;33.85;;;18.40;;
78296;SDS011;67555;47.660;19.622;2024-02-26T14:16:03;35.45;;;19.45;;